createdAt,value
2019-02-07T00:05:51.499Z,48.0
2019-02-07T00:22:39.183Z,48.4
2019-02-07T00:39:23.003Z,48.4
2019-02-07T00:56:08.803Z,48.4
2019-02-07T01:12:54.705Z,48.4
2019-02-07T01:29:40.345Z,48.4
2019-02-07T01:46:26.136Z,48.4
2019-02-07T02:03:11.855Z,48.4
2019-02-07T02:19:57.564Z,48.4
2019-02-07T02:36:43.233Z,49.2
2019-02-07T02:53:28.855Z,48.8
2019-02-07T03:10:14.546Z,48.4
2019-02-07T03:27:00.051Z,48.8
2019-02-07T03:43:45.690Z,48.8
2019-02-07T04:00:31.148Z,48.4
2019-02-07T04:17:16.765Z,48.8
2019-02-07T04:34:02.136Z,48.8
2019-02-07T04:50:47.567Z,48.8
2019-02-07T05:07:33.100Z,48.4
2019-02-07T05:24:18.599Z,48.8
2019-02-07T05:41:04.033Z,48.4
2019-02-07T05:57:49.462Z,48.4
2019-02-07T06:14:34.647Z,48.0
2019-02-07T06:31:20.165Z,48.4
2019-02-07T06:48:04.595Z,48.4
2019-02-07T07:04:49.467Z,48.4
2019-02-07T07:21:34.364Z,48.4
2019-02-07T07:38:19.161Z,49.2
2019-02-07T07:55:04.134Z,50.0
2019-02-07T08:11:49.173Z,50.4
2019-02-07T08:28:34.364Z,50.8
2019-02-07T08:45:19.970Z,50.8
2019-02-07T09:02:05.627Z,50.8
2019-02-07T09:18:51.382Z,50.8
2019-02-07T09:35:37.088Z,50.8
2019-02-07T09:52:22.938Z,50.8
2019-02-07T10:09:08.774Z,51.2
2019-02-07T10:25:54.601Z,51.2
2019-02-07T10:42:40.580Z,50.8
2019-02-07T10:59:28.077Z,50.8
2019-02-07T11:16:13.958Z,50.8
2019-02-07T11:33:00.850Z,50.4
2019-02-07T11:49:47.848Z,50.4
2019-02-07T12:06:34.811Z,50.4
2019-02-07T12:23:21.809Z,51.6
2019-02-07T12:40:09.079Z,51.6
2019-02-07T12:56:56.308Z,51.6
2019-02-07T13:13:44.107Z,51.6
2019-02-07T13:30:30.994Z,51.6
2019-02-07T13:47:18.334Z,52.8
2019-02-07T14:00:44.025Z,54.8
2019-02-07T14:17:32.404Z,56.4
2019-02-07T14:34:18.843Z,57.6
2019-02-07T14:51:05.474Z,58.4
2019-02-07T15:07:52.785Z,59.6
2019-02-07T15:24:40.059Z,60.0
2019-02-07T15:41:27.164Z,60.0
2019-02-07T15:58:14.270Z,60.4
2019-02-07T16:15:01.070Z,61.6
2019-02-07T16:31:48.195Z,62.4
2019-02-07T16:48:35.566Z,62.0
2019-02-07T17:05:23.174Z,62.4
2019-02-07T17:22:11.394Z,62.8
2019-02-07T17:38:57.614Z,63.2
2019-02-07T17:55:44.226Z,63.2
2019-02-07T18:12:30.995Z,63.6
2019-02-07T18:29:17.279Z,63.6
2019-02-07T18:46:03.625Z,63.6
2019-02-07T19:02:50.027Z,63.2
2019-02-07T19:19:36.476Z,63.2
2019-02-07T19:36:23.282Z,63.2
2019-02-07T19:53:09.594Z,63.2
2019-02-07T20:09:55.916Z,62.8
2019-02-07T20:26:42.484Z,62.8
2019-02-07T20:43:29.066Z,62.0
2019-02-07T21:00:15.605Z,62.0
2019-02-07T21:17:02.202Z,62.0
2019-02-07T21:33:48.824Z,61.6
2019-02-07T21:50:35.302Z,61.6
2019-02-07T22:07:22.051Z,61.2
2019-02-07T22:24:08.244Z,61.2
2019-02-07T22:40:54.937Z,60.8
2019-02-07T22:57:41.534Z,60.8
2019-02-07T23:14:28.030Z,60.8
2019-02-07T23:31:14.566Z,60.8
2019-02-07T23:48:01.168Z,60.8
